sensor_id;sensor_type;location;lat;lon;timestamp;pressure;altitude;pressure_sealevel;temperature;humidity
62617;BME280;76316;51.190;6.808;2024-02-23T00:01:59;98656.47;;;16.89;60.08
62617;BME280;76316;51.190;6.808;2024-02-23T00:04:25;98663.69;;;16.86;60.01
62617;BME280;76316;51.190;6.808;2024-02-23T00:06:50;98672.66;;;16.82;60.25
62617;BME280;76316;51.190;6.808;2024-02-23T00:09:16;98683.31;;;16.79;59.98
62617;BME280;76316;51.190;6.808;2024-02-23T00:11:41;98675.66;;;16.75;60.59
62617;BME280;76316;51.190;6.808;2024-02-23T00:14:12;98680.13;;;16.73;60.32
62617;BME280;76316;51.190;6.808;2024-02-23T00:16:39;98684.69;;;16.70;60.14
62617;BME280;76316;51.190;6.808;2024-02-23T00:19:05;98690.97;;;16.67;60.40
62617;BME280;76316;51.190;6.808;2024-02-23T00:21:32;98699.94;;;16.63;60.62
62617;BME280;76316;51.190;6.808;2024-02-23T00:23:57;98703.56;;;16.60;60.32
62617;BME280;76316;51.190;6.808;2024-02-23T00:26:23;98722.00;;;16.59;60.98
62617;BME280;76316;51.190;6.808;2024-02-23T00:28:48;98715.16;;;16.56;61.00
62617;BME280;76316;51.190;6.808;2024-02-23T00:31:13;98721.44;;;16.54;61.43
62617;BME280;76316;51.190;6.808;2024-02-23T00:33:39;98719.75;;;16.53;61.25
62617;BME280;76316;51.190;6.808;2024-02-23T00:36:07;98723.38;;;16.50;61.48
62617;BME280;76316;51.190;6.808;2024-02-23T00:38:32;98738.41;;;16.46;61.25
62617;BME280;76316;51.190;6.808;2024-02-23T00:40:58;98740.28;;;16.44;61.44
62617;BME280;76316;51.190;6.808;2024-02-23T00:43:23;98747.28;;;16.44;61.70
62617;BME280;76316;51.190;6.808;2024-02-23T00:45:49;98750.06;;;16.41;61.56
62617;BME280;76316;51.190;6.808;2024-02-23T00:48:14;98748.50;;;16.38;61.57
62617;BME280;76316;51.190;6.808;2024-02-23T00:50:39;98753.91;;;16.35;61.76
62617;BME280;76316;51.190;6.808;2024-02-23T00:53:05;98759.13;;;16.35;62.08
62617;BME280;76316;51.190;6.808;2024-02-23T00:55:30;98764.44;;;16.34;61.96
62617;BME280;76316;51.190;6.808;2024-02-23T00:57:56;98769.78;;;16.32;62.23
62617;BME280;76316;51.190;6.808;2024-02-23T01:00:21;98774.16;;;16.31;62.24
62617;BME280;76316;51.190;6.808;2024-02-23T01:02:47;98782.94;;;16.30;62.19
62617;BME280;76316;51.190;6.808;2024-02-23T01:05:12;98776.94;;;16.28;62.69
62617;BME280;76316;51.190;6.808;2024-02-23T01:07:38;98788.16;;;16.30;62.73
62617;BME280;76316;51.190;6.808;2024-02-23T01:10:04;98785.66;;;16.29;62.36
62617;BME280;76316;51.190;6.808;2024-02-23T01:12:29;98797.13;;;16.26;62.71
62617;BME280;76316;51.190;6.808;2024-02-23T01:14:55;98788.44;;;16.26;62.47
62617;BME280;76316;51.190;6.808;2024-02-23T01:17:20;98794.59;;;16.25;62.21
62617;BME280;76316;51.190;6.808;2024-02-23T01:19:46;98806.75;;;16.26;62.41
62617;BME280;76316;51.190;6.808;2024-02-23T01:22:11;98799.84;;;16.25;62.45
62617;BME280;76316;51.190;6.808;2024-02-23T01:24:37;98804.31;;;16.23;62.45
62617;BME280;76316;51.190;6.808;2024-02-23T01:27:02;98805.13;;;16.23;62.42
62617;BME280;76316;51.190;6.808;2024-02-23T01:29:28;98812.16;;;16.23;62.24
62617;BME280;76316;51.190;6.808;2024-02-23T01:31:54;98812.22;;;16.21;62.38
62617;BME280;76316;51.190;6.808;2024-02-23T01:34:20;98817.41;;;16.23;62.22
62617;BME280;76316;51.190;6.808;2024-02-23T01:36:46;98813.09;;;16.22;62.14
62617;BME280;76316;51.190;6.808;2024-02-23T01:39:11;98815.00;;;16.18;62.44
62617;BME280;76316;51.190;6.808;2024-02-23T01:41:37;98816.69;;;16.19;62.34
62617;BME280;76316;51.190;6.808;2024-02-23T01:44:03;98819.41;;;16.17;62.54
62617;BME280;76316;51.190;6.808;2024-02-23T01:46:29;98821.28;;;16.15;62.19
62617;BME280;76316;51.190;6.808;2024-02-23T01:48:54;98826.50;;;16.15;62.35
62617;BME280;76316;51.190;6.808;2024-02-23T01:51:20;98847.44;;;16.15;61.89
62617;BME280;76316;51.190;6.808;2024-02-23T01:53:46;98833.59;;;16.13;62.23
62617;BME280;76316;51.190;6.808;2024-02-23T01:56:13;98838.84;;;16.13;62.08
62617;BME280;76316;51.190;6.808;2024-02-23T01:58:43;98839.00;;;16.10;62.19
62617;BME280;76316;51.190;6.808;2024-02-23T02:01:10;98846.00;;;16.10;62.60
62617;BME280;76316;51.190;6.808;2024-02-23T02:03:38;98849.47;;;16.10;61.94
62617;BME280;76316;51.190;6.808;2024-02-23T02:06:09;98850.41;;;16.09;62.15
62617;BME280;76316;51.190;6.808;2024-02-23T02:08:35;98843.47;;;16.08;62.07
62617;BME280;76316;51.190;6.808;2024-02-23T02:11:01;98844.41;;;16.07;62.10
62617;BME280;76316;51.190;6.808;2024-02-23T02:13:30;98851.47;;;16.05;62.40
62617;BME280;76316;51.190;6.808;2024-02-23T02:16:01;98861.94;;;16.05;62.06
62617;BME280;76316;51.190;6.808;2024-02-23T02:18:29;98869.03;;;16.03;62.18
62617;BME280;76316;51.190;6.808;2024-02-23T02:20:56;98870.88;;;16.01;62.20
62617;BME280;76316;51.190;6.808;2024-02-23T02:23:22;98863.97;;;16.00;62.47
62617;BME280;76316;51.190;6.808;2024-02-23T02:25:58;98853.50;;;16.00;62.86
62617;BME280;76316;51.190;6.808;2024-02-23T02:28:25;98856.19;;;15.98;62.48
62617;BME280;76316;51.190;6.808;2024-02-23T02:30:52;98863.97;;;16.00;62.40
62617;BME280;76316;51.190;6.808;2024-02-23T02:33:21;98876.28;;;15.98;62.14
62617;BME280;76316;51.190;6.808;2024-02-23T02:35:47;98865.81;;;15.98;62.27
62617;BME280;76316;51.190;6.808;2024-02-23T02:38:13;98871.22;;;15.95;62.45
62617;BME280;76316;51.190;6.808;2024-02-23T02:40:39;98874.75;;;15.94;62.29
62617;BME280;76316;51.190;6.808;2024-02-23T02:43:04;98878.31;;;15.93;62.67
62617;BME280;76316;51.190;6.808;2024-02-23T02:45:31;98883.59;;;15.91;62.55
62617;BME280;76316;51.190;6.808;2024-02-23T02:47:56;98882.78;;;15.91;62.28
62617;BME280;76316;51.190;6.808;2024-02-23T02:50:22;98876.63;;;15.92;62.53
62617;BME280;76316;51.190;6.808;2024-02-23T02:52:47;98874.94;;;15.91;62.16
62617;BME280;76316;51.190;6.808;2024-02-23T02:55:13;98877.63;;;15.89;62.63
62617;BME280;76316;51.190;6.808;2024-02-23T02:57:38;98880.31;;;15.87;62.64
62617;BME280;76316;51.190;6.808;2024-02-23T03:00:05;98888.22;;;15.86;62.63
62617;BME280;76316;51.190;6.808;2024-02-23T03:02:31;98893.63;;;15.83;62.93
62617;BME280;76316;51.190;6.808;2024-02-23T03:04:57;98886.59;;;15.83;62.40
62617;BME280;76316;51.190;6.808;2024-02-23T03:07:22;98894.44;;;15.83;62.73
62617;BME280;76316;51.190;6.808;2024-02-23T03:09:48;98892.75;;;15.82;62.72
62617;BME280;76316;51.190;6.808;2024-02-23T03:12:16;98892.75;;;15.82;62.57
62617;BME280;76316;51.190;6.808;2024-02-23T03:14:42;98901.63;;;15.80;62.65
62617;BME280;76316;51.190;6.808;2024-02-23T03:17:08;98893.84;;;15.78;62.70
62617;BME280;76316;51.190;6.808;2024-02-23T03:19:37;98906.09;;;15.78;62.57
62617;BME280;76316;51.190;6.808;2024-02-23T03:22:03;98901.69;;;15.78;62.59
62617;BME280;76316;51.190;6.808;2024-02-23T03:24:29;98906.00;;;15.79;62.36
62617;BME280;76316;51.190;6.808;2024-02-23T03:26:55;98907.78;;;15.79;62.67
62617;BME280;76316;51.190;6.808;2024-02-23T03:29:21;98915.69;;;15.77;62.53
62617;BME280;76316;51.190;6.808;2024-02-23T03:31:49;98909.63;;;15.77;63.03
62617;BME280;76316;51.190;6.808;2024-02-23T03:34:15;98915.69;;;15.77;62.72
62617;BME280;76316;51.190;6.808;2024-02-23T03:36:41;98906.09;;;15.78;62.26
62617;BME280;76316;51.190;6.808;2024-02-23T03:39:06;98911.38;;;15.76;62.55
62617;BME280;76316;51.190;6.808;2024-02-23T03:41:31;98911.47;;;15.75;62.43
62617;BME280;76316;51.190;6.808;2024-02-23T03:43:57;98912.47;;;15.72;62.35
62617;BME280;76316;51.190;6.808;2024-02-23T03:46:23;98920.41;;;15.70;62.25
62617;BME280;76316;51.190;6.808;2024-02-23T03:48:49;98921.25;;;15.71;62.40
62617;BME280;76316;51.190;6.808;2024-02-23T03:51:15;98923.09;;;15.69;62.35
62617;BME280;76316;51.190;6.808;2024-02-23T03:53:41;98919.56;;;15.70;62.54
62617;BME280;76316;51.190;6.808;2024-02-23T03:56:07;98921.50;;;15.66;62.18
62617;BME280;76316;51.190;6.808;2024-02-23T03:58:33;98923.25;;;15.66;62.30
62617;BME280;76316;51.190;6.808;2024-02-23T04:00:58;98930.16;;;15.67;62.25
62617;BME280;76316;51.190;6.808;2024-02-23T04:03:24;98926.78;;;15.65;62.52
62617;BME280;76316;51.190;6.808;2024-02-23T04:05:49;98936.41;;;15.64;62.64
62617;BME280;76316;51.190;6.808;2024-02-23T04:08:15;98935.56;;;15.64;62.11
62617;BME280;76316;51.190;6.808;2024-02-23T04:10:40;98930.47;;;15.61;62.25
62617;BME280;76316;51.190;6.808;2024-02-23T04:13:05;98934.88;;;15.60;62.02
62617;BME280;76316;51.190;6.808;2024-02-23T04:15:31;98936.72;;;15.58;62.12
62617;BME280;76316;51.190;6.808;2024-02-23T04:17:56;98938.41;;;15.59;61.94
62617;BME280;76316;51.190;6.808;2024-02-23T04:20:22;98932.34;;;15.58;62.22
62617;BME280;76316;51.190;6.808;2024-02-23T04:22:47;98928.94;;;15.56;62.41
62617;BME280;76316;51.190;6.808;2024-02-23T04:25:13;98944.78;;;15.53;62.29
62617;BME280;76316;51.190;6.808;2024-02-23T04:27:38;98943.09;;;15.52;61.92
62617;BME280;76316;51.190;6.808;2024-02-23T04:30:04;98943.97;;;15.53;62.39
62617;BME280;76316;51.190;6.808;2024-02-23T04:32:31;98944.88;;;15.52;62.23
62617;BME280;76316;51.190;6.808;2024-02-23T04:34:56;98951.94;;;15.50;62.23
62617;BME280;76316;51.190;6.808;2024-02-23T04:37:22;98953.56;;;15.52;61.56
62617;BME280;76316;51.190;6.808;2024-02-23T04:39:47;98957.63;;;15.58;60.80
62617;BME280;76316;51.190;6.808;2024-02-23T04:42:13;98954.47;;;15.69;60.32
62617;BME280;76316;51.190;6.808;2024-02-23T04:44:38;98964.44;;;15.78;59.75
62617;BME280;76316;51.190;6.808;2024-02-23T04:47:06;98971.84;;;15.87;59.74
62617;BME280;76316;51.190;6.808;2024-02-23T04:49:31;98967.06;;;15.96;59.29
62617;BME280;76316;51.190;6.808;2024-02-23T04:51:56;98973.66;;;16.03;59.88
62617;BME280;76316;51.190;6.808;2024-02-23T04:54:22;98968.78;;;16.13;59.79
62617;BME280;76316;51.190;6.808;2024-02-23T04:56:47;98975.31;;;16.22;59.70
62617;BME280;76316;51.190;6.808;2024-02-23T04:59:13;98967.94;;;16.28;58.81
62617;BME280;76316;51.190;6.808;2024-02-23T05:01:38;98972.94;;;16.33;58.23
62617;BME280;76316;51.190;6.808;2024-02-23T05:04:04;98970.84;;;16.40;58.01
62617;BME280;76316;51.190;6.808;2024-02-23T05:06:31;98973.22;;;16.44;58.53
62617;BME280;76316;51.190;6.808;2024-02-23T05:08:56;98979.13;;;16.48;57.58
62617;BME280;76316;51.190;6.808;2024-02-23T05:11:22;98977.19;;;16.52;58.46
62617;BME280;76316;51.190;6.808;2024-02-23T05:13:47;98976.09;;;16.56;58.77
62617;BME280;76316;51.190;6.808;2024-02-23T05:16:16;98983.78;;;16.59;58.21
62617;BME280;76316;51.190;6.808;2024-02-23T05:18:43;98981.75;;;16.64;58.40
62617;BME280;76316;51.190;6.808;2024-02-23T05:21:09;98979.78;;;16.68;57.63
62617;BME280;76316;51.190;6.808;2024-02-23T05:23:35;98984.97;;;16.69;57.74
62617;BME280;76316;51.190;6.808;2024-02-23T05:26:00;98990.78;;;16.74;57.27
62617;BME280;76316;51.190;6.808;2024-02-23T05:28:26;98991.56;;;16.77;56.30
62617;BME280;76316;51.190;6.808;2024-02-23T05:30:53;98989.53;;;16.82;57.38
62617;BME280;76316;51.190;6.808;2024-02-23T05:33:19;98981.50;;;16.85;57.47
62617;BME280;76316;51.190;6.808;2024-02-23T05:35:46;98989.94;;;16.90;56.95
62617;BME280;76316;51.190;6.808;2024-02-23T05:38:14;98993.31;;;16.92;56.53
62617;BME280;76316;51.190;6.808;2024-02-23T05:40:40;98985.22;;;16.97;56.71
62617;BME280;76316;51.190;6.808;2024-02-23T05:43:05;98984.13;;;17.01;56.45
62617;BME280;76316;51.190;6.808;2024-02-23T05:45:31;98988.25;;;17.05;56.29
62617;BME280;76316;51.190;6.808;2024-02-23T05:47:56;98987.25;;;17.08;56.07
62617;BME280;76316;51.190;6.808;2024-02-23T05:50:22;98989.59;;;17.12;56.46
62617;BME280;76316;51.190;6.808;2024-02-23T05:52:47;98985.03;;;17.16;55.14
62617;BME280;76316;51.190;6.808;2024-02-23T05:55:13;98988.31;;;17.19;55.88
62617;BME280;76316;51.190;6.808;2024-02-23T05:57:38;98988.13;;;17.23;56.17
62617;BME280;76316;51.190;6.808;2024-02-23T06:00:04;98984.59;;;17.24;56.43
62617;BME280;76316;51.190;6.808;2024-02-23T06:02:30;98994.13;;;17.25;56.50
62617;BME280;76316;51.190;6.808;2024-02-23T06:04:56;98988.06;;;17.24;56.18
62617;BME280;76316;51.190;6.808;2024-02-23T06:07:21;98986.38;;;17.23;56.82
62617;BME280;76316;51.190;6.808;2024-02-23T06:09:54;98977.66;;;17.23;56.18
62617;BME280;76316;51.190;6.808;2024-02-23T06:12:22;98978.59;;;17.22;56.60
62617;BME280;76316;51.190;6.808;2024-02-23T06:14:48;98973.44;;;17.20;56.45
62617;BME280;76316;51.190;6.808;2024-02-23T06:17:14;98978.59;;;17.22;56.60
62617;BME280;76316;51.190;6.808;2024-02-23T06:19:39;98975.03;;;17.23;57.01
62617;BME280;76316;51.190;6.808;2024-02-23T06:22:05;98972.34;;;17.24;55.95
62617;BME280;76316;51.190;6.808;2024-02-23T06:24:30;98979.16;;;17.27;56.60
62617;BME280;76316;51.190;6.808;2024-02-23T06:26:55;98985.16;;;17.29;56.15
62617;BME280;76316;51.190;6.808;2024-02-23T06:29:23;98980.66;;;17.31;56.10
62617;BME280;76316;51.190;6.808;2024-02-23T06:31:48;98985.84;;;17.32;55.48
62617;BME280;76316;51.190;6.808;2024-02-23T06:34:15;98980.41;;;17.36;56.75
62617;BME280;76316;51.190;6.808;2024-02-23T06:36:41;98986.50;;;17.36;56.28
62617;BME280;76316;51.190;6.808;2024-02-23T06:39:07;98992.25;;;17.43;57.23
62617;BME280;76316;51.190;6.808;2024-02-23T06:41:33;98989.44;;;17.46;55.91
62617;BME280;76316;51.190;6.808;2024-02-23T06:43:59;98984.78;;;17.51;56.58
62617;BME280;76316;51.190;6.808;2024-02-23T06:46:25;98992.34;;;17.56;56.44
62617;BME280;76316;51.190;6.808;2024-02-23T06:48:50;98983.47;;;17.58;57.77
62617;BME280;76316;51.190;6.808;2024-02-23T06:51:16;98982.38;;;17.62;58.09
62617;BME280;76316;51.190;6.808;2024-02-23T06:53:41;98973.56;;;17.63;57.74
62617;BME280;76316;51.190;6.808;2024-02-23T06:56:07;98966.44;;;17.66;58.49
62617;BME280;76316;51.190;6.808;2024-02-23T06:58:32;98965.41;;;17.68;57.84
62617;BME280;76316;51.190;6.808;2024-02-23T07:00:58;98976.75;;;17.69;56.87
62617;BME280;76316;51.190;6.808;2024-02-23T07:03:23;98970.56;;;17.70;57.12
62617;BME280;76316;51.190;6.808;2024-02-23T07:05:48;98969.66;;;17.71;56.38
62617;BME280;76316;51.190;6.808;2024-02-23T07:08:15;98967.28;;;17.66;56.19
62617;BME280;76316;51.190;6.808;2024-02-23T07:10:40;98970.00;;;17.65;54.86
62617;BME280;76316;51.190;6.808;2024-02-23T07:13:06;98962.13;;;17.65;56.97
62617;BME280;76316;51.190;6.808;2024-02-23T07:15:32;98965.59;;;17.65;55.66
62617;BME280;76316;51.190;6.808;2024-02-23T07:17:58;98972.44;;;17.68;56.44
62617;BME280;76316;51.190;6.808;2024-02-23T07:20:24;98968.78;;;17.70;56.71
62617;BME280;76316;51.190;6.808;2024-02-23T07:22:50;98969.53;;;17.72;56.29
62617;BME280;76316;51.190;6.808;2024-02-23T07:25:16;98965.91;;;17.75;56.51
62617;BME280;76316;51.190;6.808;2024-02-23T07:27:43;98977.16;;;17.77;55.80
62617;BME280;76316;51.190;6.808;2024-02-23T07:30:09;98986.69;;;17.78;55.23
62617;BME280;76316;51.190;6.808;2024-02-23T07:32:35;99003.94;;;17.82;56.95
62617;BME280;76316;51.190;6.808;2024-02-23T07:35:01;98984.53;;;17.85;57.26
62617;BME280;76316;51.190;6.808;2024-02-23T07:37:29;98983.53;;;17.87;56.92
62617;BME280;76316;51.190;6.808;2024-02-23T07:39:55;98974.53;;;17.91;57.54
62617;BME280;76316;51.190;6.808;2024-02-23T07:42:21;98981.28;;;17.96;56.77
62617;BME280;76316;51.190;6.808;2024-02-23T07:44:46;98985.59;;;17.97;56.23
62617;BME280;76316;51.190;6.808;2024-02-23T07:47:12;98969.84;;;17.97;56.04
62617;BME280;76316;51.190;6.808;2024-02-23T07:49:37;98973.22;;;17.99;56.46
62617;BME280;76316;51.190;6.808;2024-02-23T07:52:06;98985.44;;;18.00;56.76
62617;BME280;76316;51.190;6.808;2024-02-23T07:54:32;98991.44;;;18.02;56.57
62617;BME280;76316;51.190;6.808;2024-02-23T07:56:57;98980.00;;;18.03;56.37
62617;BME280;76316;51.190;6.808;2024-02-23T07:59:24;98976.44;;;18.04;54.99
62617;BME280;76316;51.190;6.808;2024-02-23T08:01:49;98980.75;;;18.05;55.53
62617;BME280;76316;51.190;6.808;2024-02-23T08:04:15;98981.69;;;18.04;54.00
62617;BME280;76316;51.190;6.808;2024-02-23T08:06:41;98976.44;;;18.04;54.84
62617;BME280;76316;51.190;6.808;2024-02-23T08:09:08;98974.75;;;18.03;53.44
62617;BME280;76316;51.190;6.808;2024-02-23T08:11:34;98980.75;;;18.05;54.51
62617;BME280;76316;51.190;6.808;2024-02-23T08:14:00;98974.56;;;18.06;53.68
62617;BME280;76316;51.190;6.808;2024-02-23T08:16:26;98986.75;;;18.07;54.11
62617;BME280;76316;51.190;6.808;2024-02-23T08:18:51;98979.63;;;18.09;55.78
62617;BME280;76316;51.190;6.808;2024-02-23T08:21:17;98984.59;;;18.14;55.90
62617;BME280;76316;51.190;6.808;2024-02-23T08:23:43;98984.13;;;18.21;54.72
62617;BME280;76316;51.190;6.808;2024-02-23T08:26:09;98974.94;;;18.29;57.05
62617;BME280;76316;51.190;6.808;2024-02-23T08:28:35;98985.06;;;18.35;56.19
62617;BME280;76316;51.190;6.808;2024-02-23T08:31:00;98976.06;;;18.39;56.47
62617;BME280;76316;51.190;6.808;2024-02-23T08:33:26;98980.91;;;18.45;55.13
62617;BME280;76316;51.190;6.808;2024-02-23T08:35:51;98982.59;;;18.46;54.22
62617;BME280;76316;51.190;6.808;2024-02-23T08:38:17;98980.53;;;18.51;55.55
62617;BME280;76316;51.190;6.808;2024-02-23T08:40:43;98984.09;;;18.50;54.97
62617;BME280;76316;51.190;6.808;2024-02-23T08:43:10;98986.31;;;18.57;56.20
62617;BME280;76316;51.190;6.808;2024-02-23T08:45:35;98991.28;;;18.61;56.02
62617;BME280;76316;51.190;6.808;2024-02-23T08:48:01;98990.78;;;18.69;55.27
62617;BME280;76316;51.190;6.808;2024-02-23T08:50:28;98984.41;;;18.73;56.10
62617;BME280;76316;51.190;6.808;2024-02-23T08:52:54;98993.03;;;18.75;55.79
62617;BME280;76316;51.190;6.808;2024-02-23T08:55:19;98987.50;;;18.80;55.27
62617;BME280;76316;51.190;6.808;2024-02-23T08:57:46;98983.72;;;18.84;55.45
62617;BME280;76316;51.190;6.808;2024-02-23T09:00:12;98983.63;;;18.86;55.19
62617;BME280;76316;51.190;6.808;2024-02-23T09:02:39;98974.59;;;18.90;55.02
62617;BME280;76316;51.190;6.808;2024-02-23T09:05:07;98977.22;;;18.90;55.12
62617;BME280;76316;51.190;6.808;2024-02-23T09:07:32;98977.97;;;18.92;56.36
62617;BME280;76316;51.190;6.808;2024-02-23T09:09:58;98977.97;;;18.92;56.22
62617;BME280;76316;51.190;6.808;2024-02-23T09:12:23;98993.72;;;18.92;55.78
62617;BME280;76316;51.190;6.808;2024-02-23T09:14:49;98996.41;;;18.06;39.33
62617;BME280;76316;51.190;6.808;2024-02-23T09:17:14;98995.41;;;17.33;39.74
62617;BME280;76316;51.190;6.808;2024-02-23T09:19:40;98998.56;;;16.60;39.34
62617;BME280;76316;51.190;6.808;2024-02-23T09:22:05;98999.56;;;16.73;44.35
62617;BME280;76316;51.190;6.808;2024-02-23T09:24:31;98995.19;;;16.90;45.66
62617;BME280;76316;51.190;6.808;2024-02-23T09:26:56;98998.22;;;17.14;46.71
62617;BME280;76316;51.190;6.808;2024-02-23T09:29:21;99000.34;;;17.38;47.39
62617;BME280;76316;51.190;6.808;2024-02-23T09:31:47;98992.00;;;17.62;47.57
62617;BME280;76316;51.190;6.808;2024-02-23T09:34:13;99006.28;;;17.87;47.73
62617;BME280;76316;51.190;6.808;2024-02-23T09:36:38;99010.56;;;18.04;48.41
62617;BME280;76316;51.190;6.808;2024-02-23T09:39:04;98995.00;;;18.15;48.86
62617;BME280;76316;51.190;6.808;2024-02-23T09:41:30;98996.22;;;18.24;48.85
62617;BME280;76316;51.190;6.808;2024-02-23T09:43:58;99009.81;;;18.31;49.41
62617;BME280;76316;51.190;6.808;2024-02-23T09:46:25;99011.13;;;18.38;49.86
62617;BME280;76316;51.190;6.808;2024-02-23T09:48:51;99010.00;;;18.42;50.19
62617;BME280;76316;51.190;6.808;2024-02-23T09:51:19;99015.06;;;18.45;49.96
62617;BME280;76316;51.190;6.808;2024-02-23T09:53:49;98995.63;;;18.48;50.37
62617;BME280;76316;51.190;6.808;2024-02-23T09:56:17;99007.53;;;18.54;50.99
62617;BME280;76316;51.190;6.808;2024-02-23T09:58:43;99010.81;;;18.57;50.87
62617;BME280;76316;51.190;6.808;2024-02-23T10:01:10;99000.00;;;18.62;51.12
62617;BME280;76316;51.190;6.808;2024-02-23T10:03:37;99002.25;;;18.68;51.04
62617;BME280;76316;51.190;6.808;2024-02-23T10:06:04;98997.66;;;18.72;50.47
62617;BME280;76316;51.190;6.808;2024-02-23T10:08:30;99003.44;;;18.77;51.19
62617;BME280;76316;51.190;6.808;2024-02-23T10:10:56;99006.50;;;18.84;50.16
62617;BME280;76316;51.190;6.808;2024-02-23T10:13:23;99006.13;;;18.90;51.66
62617;BME280;76316;51.190;6.808;2024-02-23T10:15:50;99013.63;;;18.96;51.39
62617;BME280;76316;51.190;6.808;2024-02-23T10:18:16;99003.47;;;19.04;51.35
62617;BME280;76316;51.190;6.808;2024-02-23T10:20:42;99007.41;;;19.12;50.97
62617;BME280;76316;51.190;6.808;2024-02-23T10:23:08;98998.50;;;19.14;51.49
62617;BME280;76316;51.190;6.808;2024-02-23T10:25:35;99004.38;;;19.18;50.80
62617;BME280;76316;51.190;6.808;2024-02-23T10:28:02;99009.44;;;19.21;51.33
62617;BME280;76316;51.190;6.808;2024-02-23T10:30:28;99008.59;;;19.20;51.59
62617;BME280;76316;51.190;6.808;2024-02-23T10:32:58;99007.75;;;19.20;52.05
62617;BME280;76316;51.190;6.808;2024-02-23T10:35:25;99018.25;;;19.20;52.42
62617;BME280;76316;51.190;6.808;2024-02-23T10:37:53;99006.91;;;19.19;52.31
62617;BME280;76316;51.190;6.808;2024-02-23T10:40:20;99021.94;;;19.17;51.71
62617;BME280;76316;51.190;6.808;2024-02-23T10:42:48;99018.47;;;19.17;52.51
62617;BME280;76316;51.190;6.808;2024-02-23T10:45:19;99018.66;;;19.14;51.80
62617;BME280;76316;51.190;6.808;2024-02-23T10:47:50;99020.47;;;19.13;52.22
62617;BME280;76316;51.190;6.808;2024-02-23T10:50:17;99035.38;;;19.13;51.51
62617;BME280;76316;51.190;6.808;2024-02-23T10:52:45;99038.84;;;19.13;51.76
62617;BME280;76316;51.190;6.808;2024-02-23T10:55:12;99023.91;;;19.14;52.09
62617;BME280;76316;51.190;6.808;2024-02-23T10:57:39;99034.44;;;19.14;51.85
62617;BME280;76316;51.190;6.808;2024-02-23T11:00:05;99031.78;;;19.14;51.67
62617;BME280;76316;51.190;6.808;2024-02-23T11:02:40;99021.19;;;19.15;52.82
62617;BME280;76316;51.190;6.808;2024-02-23T11:05:10;99024.97;;;19.11;51.19
62617;BME280;76316;51.190;6.808;2024-02-23T11:07:38;99024.97;;;19.11;51.38
62617;BME280;76316;51.190;6.808;2024-02-23T11:10:05;99019.81;;;19.09;52.26
62617;BME280;76316;51.190;6.808;2024-02-23T11:12:31;99027.69;;;19.09;51.66
62617;BME280;76316;51.190;6.808;2024-02-23T11:14:58;99034.81;;;19.07;51.06
62617;BME280;76316;51.190;6.808;2024-02-23T11:17:32;99023.56;;;19.05;52.11
62617;BME280;76316;51.190;6.808;2024-02-23T11:20:03;99021.78;;;19.06;51.61
62617;BME280;76316;51.190;6.808;2024-02-23T11:22:31;99022.63;;;19.06;52.10
62617;BME280;76316;51.190;6.808;2024-02-23T11:25:03;99013.59;;;19.10;50.31
62617;BME280;76316;51.190;6.808;2024-02-23T11:27:31;99016.69;;;19.17;51.64
62617;BME280;76316;51.190;6.808;2024-02-23T11:30:06;99021.63;;;19.22;52.20
62617;BME280;76316;51.190;6.808;2024-02-23T11:32:45;99014.50;;;19.24;52.17
62617;BME280;76316;51.190;6.808;2024-02-23T11:35:19;99008.00;;;19.30;52.76
62617;BME280;76316;51.190;6.808;2024-02-23T11:37:49;99010.72;;;19.28;52.18
62617;BME280;76316;51.190;6.808;2024-02-23T11:40:25;99013.34;;;19.28;53.57
62617;BME280;76316;51.190;6.808;2024-02-23T11:42:51;99009.88;;;19.28;53.90
62617;BME280;76316;51.190;6.808;2024-02-23T11:45:17;99019.53;;;19.27;52.68
62617;BME280;76316;51.190;6.808;2024-02-23T11:47:42;99013.53;;;19.25;53.09
62617;BME280;76316;51.190;6.808;2024-02-23T11:50:09;99005.66;;;19.25;52.32
62617;BME280;76316;51.190;6.808;2024-02-23T11:52:39;99005.03;;;19.21;50.89
62617;BME280;76316;51.190;6.808;2024-02-23T11:55:06;99015.03;;;19.29;53.96
62617;BME280;76316;51.190;6.808;2024-02-23T11:57:33;99013.88;;;19.33;51.73
62617;BME280;76316;51.190;6.808;2024-02-23T12:00:01;99012.19;;;19.32;53.43
62617;BME280;76316;51.190;6.808;2024-02-23T12:02:28;99017.47;;;19.32;53.21
62617;BME280;76316;51.190;6.808;2024-02-23T12:04:53;99013.81;;;19.35;52.26
62617;BME280;76316;51.190;6.808;2024-02-23T12:07:19;99012.00;;;19.35;51.93
62617;BME280;76316;51.190;6.808;2024-02-23T12:09:46;99017.06;;;19.38;53.21
62617;BME280;76316;51.190;6.808;2024-02-23T12:12:12;99018.94;;;19.36;52.71
62617;BME280;76316;51.190;6.808;2024-02-23T12:14:39;99014.53;;;19.37;53.94
62617;BME280;76316;51.190;6.808;2024-02-23T12:17:07;99024.19;;;19.36;52.44
62617;BME280;76316;51.190;6.808;2024-02-23T12:19:37;99022.22;;;19.40;53.20
62617;BME280;76316;51.190;6.808;2024-02-23T12:22:05;99015.28;;;19.39;52.35
62617;BME280;76316;51.190;6.808;2024-02-23T12:24:30;99017.78;;;19.41;53.18
62617;BME280;76316;51.190;6.808;2024-02-23T12:26:55;99013.06;;;19.46;53.96
62617;BME280;76316;51.190;6.808;2024-02-23T12:29:22;99018.13;;;19.49;53.75
62617;BME280;76316;51.190;6.808;2024-02-23T12:31:47;99019.81;;;19.50;52.49
62617;BME280;76316;51.190;6.808;2024-02-23T12:34:13;99015.09;;;19.55;53.17
62617;BME280;76316;51.190;6.808;2024-02-23T12:36:39;99009.00;;;19.54;52.70
62617;BME280;76316;51.190;6.808;2024-02-23T12:39:05;99016.78;;;19.56;52.31
62617;BME280;76316;51.190;6.808;2024-02-23T12:41:31;99023.84;;;19.56;53.41
62617;BME280;76316;51.190;6.808;2024-02-23T12:43:57;99026.56;;;19.54;53.03
62617;BME280;76316;51.190;6.808;2024-02-23T12:46:22;99022.97;;;19.55;52.46
62617;BME280;76316;51.190;6.808;2024-02-23T12:48:49;99023.94;;;19.54;53.23
62617;BME280;76316;51.190;6.808;2024-02-23T12:51:15;99022.16;;;19.54;52.35
62617;BME280;76316;51.190;6.808;2024-02-23T12:53:42;99026.34;;;19.57;52.54
62617;BME280;76316;51.190;6.808;2024-02-23T12:56:12;99029.84;;;19.58;53.58